sensor_id;sensor_type;location;lat;lon;timestamp;P1;durP1;ratioP1;P2;durP2;ratioP2
32734;SDS011;19112;51.076;3.706;2023-07-28T02:36:44;11.02;;;4.03;;
32734;SDS011;19112;51.076;3.706;2023-07-28T03:06:50;12.77;;;4.85;;
32734;SDS011;19112;51.076;3.706;2023-07-28T03:32:24;12.57;;;5.18;;
32734;SDS011;19112;51.076;3.706;2023-07-28T04:09:53;12.40;;;4.40;;
32734;SDS011;19112;51.076;3.706;2023-07-28T05:01:44;10.30;;;3.70;;
32734;SDS011;19112;51.076;3.706;2023-07-28T05:05:18;8.60;;;4.15;;
32734;SDS011;19112;51.076;3.706;2023-07-28T05:09:00;11.35;;;4.30;;
32734;SDS011;19112;51.076;3.706;2023-07-28T05:39:46;8.88;;;3.92;;
32734;SDS011;19112;51.076;3.706;2023-07-28T05:42:52;10.65;;;4.45;;
32734;SDS011;19112;51.076;3.706;2023-07-28T05:45:58;11.88;;;5.38;;
32734;SDS011;19112;51.076;3.706;2023-07-28T05:52:23;14.45;;;5.80;;
32734;SDS011;19112;51.076;3.706;2023-07-28T06:02:09;15.45;;;6.60;;
32734;SDS011;19112;51.076;3.706;2023-07-28T06:27:17;14.88;;;6.07;;
32734;SDS011;19112;51.076;3.706;2023-07-28T06:33:46;12.95;;;5.47;;
32734;SDS011;19112;51.076;3.706;2023-07-28T06:40:53;12.98;;;5.53;;
32734;SDS011;19112;51.076;3.706;2023-07-28T06:47:08;18.13;;;6.85;;
32734;SDS011;19112;51.076;3.706;2023-07-28T06:56:42;18.88;;;8.07;;
32734;SDS011;19112;51.076;3.706;2023-07-28T07:00:02;15.32;;;6.18;;
32734;SDS011;19112;51.076;3.706;2023-07-28T07:06:10;17.08;;;5.80;;
32734;SDS011;19112;51.076;3.706;2023-07-28T07:11:59;15.35;;;5.38;;
32734;SDS011;19112;51.076;3.706;2023-07-28T07:14:58;14.15;;;5.30;;
32734;SDS011;19112;51.076;3.706;2023-07-28T07:18:41;14.35;;;4.75;;
32734;SDS011;19112;51.076;3.706;2023-07-28T07:44:27;15.13;;;5.25;;
32734;SDS011;19112;51.076;3.706;2023-07-28T07:55:41;16.48;;;5.97;;
32734;SDS011;19112;51.076;3.706;2023-07-28T08:27:07;15.07;;;5.78;;
32734;SDS011;19112;51.076;3.706;2023-07-28T08:42:30;12.63;;;5.50;;
32734;SDS011;19112;51.076;3.706;2023-07-28T08:51:32;16.60;;;5.13;;
32734;SDS011;19112;51.076;3.706;2023-07-28T09:01:32;15.13;;;5.28;;
32734;SDS011;19112;51.076;3.706;2023-07-28T09:12:53;11.65;;;5.55;;
32734;SDS011;19112;51.076;3.706;2023-07-28T09:20:43;11.60;;;4.40;;
32734;SDS011;19112;51.076;3.706;2023-07-28T09:28:05;12.07;;;4.95;;
32734;SDS011;19112;51.076;3.706;2023-07-28T09:31:28;11.90;;;4.72;;
32734;SDS011;19112;51.076;3.706;2023-07-28T09:41:38;16.15;;;4.95;;
32734;SDS011;19112;51.076;3.706;2023-07-28T09:45:55;9.85;;;4.00;;
32734;SDS011;19112;51.076;3.706;2023-07-28T09:53:18;8.68;;;3.72;;
32734;SDS011;19112;51.076;3.706;2023-07-28T10:04:02;6.65;;;2.60;;
32734;SDS011;19112;51.076;3.706;2023-07-28T10:07:35;5.55;;;2.22;;
32734;SDS011;19112;51.076;3.706;2023-07-28T10:11:04;7.07;;;2.42;;
32734;SDS011;19112;51.076;3.706;2023-07-28T10:14:25;4.50;;;2.05;;
32734;SDS011;19112;51.076;3.706;2023-07-28T10:44:57;2.28;;;1.23;;
32734;SDS011;19112;51.076;3.706;2023-07-28T10:47:34;3.50;;;1.42;;
32734;SDS011;19112;51.076;3.706;2023-07-28T10:56:46;3.58;;;1.75;;
32734;SDS011;19112;51.076;3.706;2023-07-28T10:59:37;3.35;;;1.48;;
32734;SDS011;19112;51.076;3.706;2023-07-28T11:02:41;3.28;;;1.65;;
32734;SDS011;19112;51.076;3.706;2023-07-28T11:06:15;2.88;;;1.40;;
32734;SDS011;19112;51.076;3.706;2023-07-28T11:13:31;2.88;;;1.38;;
32734;SDS011;19112;51.076;3.706;2023-07-28T11:16:39;7.15;;;1.80;;
32734;SDS011;19112;51.076;3.706;2023-07-28T11:19:49;3.40;;;1.88;;
32734;SDS011;19112;51.076;3.706;2023-07-28T11:23:01;3.78;;;1.35;;
32734;SDS011;19112;51.076;3.706;2023-07-28T11:25:37;2.88;;;1.58;;
32734;SDS011;19112;51.076;3.706;2023-07-28T11:28:20;6.80;;;1.85;;
32734;SDS011;19112;51.076;3.706;2023-07-28T11:31:13;7.35;;;2.20;;
32734;SDS011;19112;51.076;3.706;2023-07-28T11:33:49;5.22;;;2.08;;
32734;SDS011;19112;51.076;3.706;2023-07-28T11:39:58;5.22;;;2.05;;
32734;SDS011;19112;51.076;3.706;2023-07-28T11:49:48;6.40;;;1.75;;
32734;SDS011;19112;51.076;3.706;2023-07-28T11:55:09;5.72;;;1.70;;
32734;SDS011;19112;51.076;3.706;2023-07-28T12:00:42;3.97;;;1.70;;
32734;SDS011;19112;51.076;3.706;2023-07-28T12:07:08;5.45;;;1.80;;
32734;SDS011;19112;51.076;3.706;2023-07-28T12:12:51;3.70;;;2.00;;
32734;SDS011;19112;51.076;3.706;2023-07-28T12:15:21;7.60;;;2.40;;
32734;SDS011;19112;51.076;3.706;2023-07-28T12:18:15;5.13;;;1.80;;
32734;SDS011;19112;51.076;3.706;2023-07-28T12:21:00;4.32;;;1.73;;
32734;SDS011;19112;51.076;3.706;2023-07-28T12:26:29;2.70;;;1.60;;
32734;SDS011;19112;51.076;3.706;2023-07-28T12:29:17;3.15;;;2.00;;
32734;SDS011;19112;51.076;3.706;2023-07-28T12:31:50;4.15;;;1.92;;
32734;SDS011;19112;51.076;3.706;2023-07-28T12:34:20;4.65;;;1.70;;
32734;SDS011;19112;51.076;3.706;2023-07-28T12:42:06;4.38;;;1.70;;
32734;SDS011;19112;51.076;3.706;2023-07-28T12:44:33;4.03;;;1.77;;
32734;SDS011;19112;51.076;3.706;2023-07-28T12:46:59;6.38;;;2.03;;
32734;SDS011;19112;51.076;3.706;2023-07-28T12:49:25;5.53;;;1.60;;
32734;SDS011;19112;51.076;3.706;2023-07-28T12:51:51;4.05;;;1.52;;
32734;SDS011;19112;51.076;3.706;2023-07-28T12:54:17;3.33;;;1.48;;
32734;SDS011;19112;51.076;3.706;2023-07-28T12:56:42;5.53;;;2.00;;
32734;SDS011;19112;51.076;3.706;2023-07-28T12:59:08;7.07;;;1.88;;
32734;SDS011;19112;51.076;3.706;2023-07-28T13:01:36;5.70;;;1.90;;
32734;SDS011;19112;51.076;3.706;2023-07-28T13:04:02;3.97;;;1.98;;
32734;SDS011;19112;51.076;3.706;2023-07-28T13:06:28;5.85;;;2.45;;
32734;SDS011;19112;51.076;3.706;2023-07-28T13:08:54;4.38;;;1.90;;
32734;SDS011;19112;51.076;3.706;2023-07-28T13:11:20;5.45;;;1.95;;
32734;SDS011;19112;51.076;3.706;2023-07-28T13:13:46;3.30;;;2.10;;
32734;SDS011;19112;51.076;3.706;2023-07-28T13:16:11;3.95;;;1.98;;
32734;SDS011;19112;51.076;3.706;2023-07-28T13:18:37;5.43;;;1.90;;
32734;SDS011;19112;51.076;3.706;2023-07-28T13:21:04;4.63;;;1.52;;
32734;SDS011;19112;51.076;3.706;2023-07-28T13:26:00;7.63;;;2.00;;
32734;SDS011;19112;51.076;3.706;2023-07-28T13:28:25;3.97;;;1.67;;
32734;SDS011;19112;51.076;3.706;2023-07-28T13:30:52;3.83;;;1.58;;
32734;SDS011;19112;51.076;3.706;2023-07-28T13:33:17;2.33;;;1.60;;
32734;SDS011;19112;51.076;3.706;2023-07-28T13:35:43;3.75;;;1.67;;
32734;SDS011;19112;51.076;3.706;2023-07-28T13:38:09;5.68;;;1.77;;
32734;SDS011;19112;51.076;3.706;2023-07-28T13:40:35;5.47;;;2.13;;
32734;SDS011;19112;51.076;3.706;2023-07-28T13:43:01;6.22;;;1.88;;
32734;SDS011;19112;51.076;3.706;2023-07-28T13:45:27;3.42;;;1.42;;
32734;SDS011;19112;51.076;3.706;2023-07-28T13:47:52;6.45;;;1.70;;
32734;SDS011;19112;51.076;3.706;2023-07-28T13:50:19;2.67;;;1.63;;
32734;SDS011;19112;51.076;3.706;2023-07-28T13:52:44;5.72;;;2.10;;
32734;SDS011;19112;51.076;3.706;2023-07-28T13:55:10;3.08;;;1.80;;
32734;SDS011;19112;51.076;3.706;2023-07-28T13:57:36;2.88;;;1.77;;
32734;SDS011;19112;51.076;3.706;2023-07-28T14:00:03;4.13;;;1.60;;
32734;SDS011;19112;51.076;3.706;2023-07-28T14:02:34;5.70;;;1.77;;
32734;SDS011;19112;51.076;3.706;2023-07-28T14:05:01;4.38;;;1.50;;
32734;SDS011;19112;51.076;3.706;2023-07-28T14:07:27;3.88;;;1.42;;
32734;SDS011;19112;51.076;3.706;2023-07-28T14:09:53;2.50;;;1.65;;
32734;SDS011;19112;51.076;3.706;2023-07-28T14:12:19;5.15;;;1.70;;
32734;SDS011;19112;51.076;3.706;2023-07-28T14:14:45;3.15;;;1.48;;
32734;SDS011;19112;51.076;3.706;2023-07-28T14:17:10;3.95;;;1.35;;
32734;SDS011;19112;51.076;3.706;2023-07-28T14:19:38;6.07;;;2.13;;
32734;SDS011;19112;51.076;3.706;2023-07-28T14:22:05;3.72;;;1.77;;
32734;SDS011;19112;51.076;3.706;2023-07-28T14:24:31;5.43;;;1.63;;
32734;SDS011;19112;51.076;3.706;2023-07-28T14:26:57;3.58;;;1.75;;
32734;SDS011;19112;51.076;3.706;2023-07-28T14:29:22;3.42;;;1.45;;
32734;SDS011;19112;51.076;3.706;2023-07-28T14:31:48;3.40;;;1.60;;
32734;SDS011;19112;51.076;3.706;2023-07-28T14:34:14;4.45;;;1.80;;
32734;SDS011;19112;51.076;3.706;2023-07-28T14:36:40;2.20;;;1.48;;
32734;SDS011;19112;51.076;3.706;2023-07-28T14:39:06;4.38;;;1.60;;
32734;SDS011;19112;51.076;3.706;2023-07-28T14:41:35;4.88;;;1.40;;
32734;SDS011;19112;51.076;3.706;2023-07-28T14:44:01;4.95;;;1.38;;
32734;SDS011;19112;51.076;3.706;2023-07-28T14:46:27;4.90;;;1.77;;
32734;SDS011;19112;51.076;3.706;2023-07-28T14:48:53;5.53;;;1.58;;
32734;SDS011;19112;51.076;3.706;2023-07-28T14:51:20;4.75;;;1.30;;
32734;SDS011;19112;51.076;3.706;2023-07-28T14:53:46;3.80;;;1.60;;
32734;SDS011;19112;51.076;3.706;2023-07-28T14:56:13;3.25;;;1.52;;
32734;SDS011;19112;51.076;3.706;2023-07-28T14:58:40;4.57;;;1.85;;
32734;SDS011;19112;51.076;3.706;2023-07-28T15:01:07;1.70;;;1.33;;
32734;SDS011;19112;51.076;3.706;2023-07-28T15:03:35;3.63;;;1.40;;
32734;SDS011;19112;51.076;3.706;2023-07-28T15:06:01;4.63;;;1.67;;
32734;SDS011;19112;51.076;3.706;2023-07-28T15:08:28;2.00;;;1.48;;
32734;SDS011;19112;51.076;3.706;2023-07-28T15:10:55;7.47;;;1.48;;
32734;SDS011;19112;51.076;3.706;2023-07-28T15:13:22;5.88;;;1.92;;
32734;SDS011;19112;51.076;3.706;2023-07-28T15:15:48;3.40;;;1.55;;
32734;SDS011;19112;51.076;3.706;2023-07-28T15:18:14;3.47;;;1.80;;
32734;SDS011;19112;51.076;3.706;2023-07-28T15:20:41;1.60;;;1.33;;
32734;SDS011;19112;51.076;3.706;2023-07-28T15:23:08;2.45;;;1.70;;
32734;SDS011;19112;51.076;3.706;2023-07-28T15:25:34;2.47;;;1.50;;
32734;SDS011;19112;51.076;3.706;2023-07-28T15:28:02;5.15;;;1.85;;
32734;SDS011;19112;51.076;3.706;2023-07-28T15:30:28;5.50;;;1.92;;
32734;SDS011;19112;51.076;3.706;2023-07-28T15:32:55;5.30;;;1.85;;
32734;SDS011;19112;51.076;3.706;2023-07-28T15:35:21;2.22;;;1.67;;
32734;SDS011;19112;51.076;3.706;2023-07-28T15:37:47;3.67;;;1.50;;
32734;SDS011;19112;51.076;3.706;2023-07-28T15:40:13;2.22;;;1.35;;
32734;SDS011;19112;51.076;3.706;2023-07-28T15:42:39;4.90;;;1.50;;
32734;SDS011;19112;51.076;3.706;2023-07-28T15:45:05;3.78;;;1.52;;
32734;SDS011;19112;51.076;3.706;2023-07-28T15:47:31;4.00;;;1.40;;
32734;SDS011;19112;51.076;3.706;2023-07-28T15:49:59;4.95;;;1.70;;
32734;SDS011;19112;51.076;3.706;2023-07-28T15:52:25;2.35;;;1.40;;
32734;SDS011;19112;51.076;3.706;2023-07-28T15:54:51;2.95;;;1.40;;
32734;SDS011;19112;51.076;3.706;2023-07-28T15:57:17;3.78;;;1.55;;
32734;SDS011;19112;51.076;3.706;2023-07-28T15:59:45;4.25;;;1.20;;
32734;SDS011;19112;51.076;3.706;2023-07-28T16:02:11;3.65;;;1.48;;
32734;SDS011;19112;51.076;3.706;2023-07-28T16:04:37;2.50;;;1.35;;
32734;SDS011;19112;51.076;3.706;2023-07-28T16:07:03;1.95;;;1.40;;
32734;SDS011;19112;51.076;3.706;2023-07-28T16:09:29;3.33;;;1.60;;
32734;SDS011;19112;51.076;3.706;2023-07-28T16:11:55;1.55;;;1.13;;
32734;SDS011;19112;51.076;3.706;2023-07-28T16:14:21;5.47;;;1.42;;
32734;SDS011;19112;51.076;3.706;2023-07-28T16:16:47;1.73;;;1.20;;
32734;SDS011;19112;51.076;3.706;2023-07-28T16:19:13;5.40;;;1.67;;
32734;SDS011;19112;51.076;3.706;2023-07-28T16:21:38;2.42;;;1.17;;
32734;SDS011;19112;51.076;3.706;2023-07-28T16:24:05;3.15;;;1.27;;
32734;SDS011;19112;51.076;3.706;2023-07-28T16:26:31;4.18;;;1.52;;
32734;SDS011;19112;51.076;3.706;2023-07-28T16:28:57;2.13;;;1.40;;
32734;SDS011;19112;51.076;3.706;2023-07-28T16:31:23;6.40;;;2.08;;
32734;SDS011;19112;51.076;3.706;2023-07-28T16:33:49;2.00;;;1.23;;
32734;SDS011;19112;51.076;3.706;2023-07-28T16:36:15;1.55;;;1.15;;
32734;SDS011;19112;51.076;3.706;2023-07-28T16:38:40;2.17;;;1.30;;
32734;SDS011;19112;51.076;3.706;2023-07-28T16:41:06;3.10;;;1.40;;
32734;SDS011;19112;51.076;3.706;2023-07-28T16:43:32;3.78;;;1.35;;
32734;SDS011;19112;51.076;3.706;2023-07-28T16:45:59;1.98;;;1.23;;
32734;SDS011;19112;51.076;3.706;2023-07-28T16:48:24;6.13;;;1.55;;
32734;SDS011;19112;51.076;3.706;2023-07-28T16:50:50;3.47;;;1.75;;
32734;SDS011;19112;51.076;3.706;2023-07-28T16:53:16;2.78;;;1.10;;
32734;SDS011;19112;51.076;3.706;2023-07-28T16:55:45;4.40;;;1.30;;
32734;SDS011;19112;51.076;3.706;2023-07-28T16:58:11;2.25;;;1.55;;
32734;SDS011;19112;51.076;3.706;2023-07-28T17:00:36;3.78;;;1.65;;
32734;SDS011;19112;51.076;3.706;2023-07-28T17:03:02;1.75;;;1.33;;
32734;SDS011;19112;51.076;3.706;2023-07-28T17:05:28;2.03;;;1.25;;
32734;SDS011;19112;51.076;3.706;2023-07-28T17:07:54;3.45;;;1.58;;
32734;SDS011;19112;51.076;3.706;2023-07-28T17:10:20;2.05;;;1.42;;
32734;SDS011;19112;51.076;3.706;2023-07-28T17:12:46;2.40;;;1.30;;
32734;SDS011;19112;51.076;3.706;2023-07-28T17:15:12;5.57;;;1.85;;
32734;SDS011;19112;51.076;3.706;2023-07-28T17:17:39;2.67;;;1.63;;
32734;SDS011;19112;51.076;3.706;2023-07-28T17:20:05;3.92;;;1.50;;
32734;SDS011;19112;51.076;3.706;2023-07-28T17:22:31;1.70;;;1.30;;
32734;SDS011;19112;51.076;3.706;2023-07-28T17:24:59;4.82;;;1.50;;
32734;SDS011;19112;51.076;3.706;2023-07-28T17:27:25;4.10;;;1.50;;
32734;SDS011;19112;51.076;3.706;2023-07-28T17:29:51;1.30;;;0.93;;
32734;SDS011;19112;51.076;3.706;2023-07-28T17:32:16;3.17;;;1.50;;
32734;SDS011;19112;51.076;3.706;2023-07-28T17:34:43;3.05;;;1.50;;
32734;SDS011;19112;51.076;3.706;2023-07-28T17:37:08;3.92;;;1.40;;
32734;SDS011;19112;51.076;3.706;2023-07-28T17:39:34;5.03;;;1.55;;
32734;SDS011;19112;51.076;3.706;2023-07-28T17:42:00;4.63;;;1.67;;
32734;SDS011;19112;51.076;3.706;2023-07-28T17:44:26;2.20;;;1.15;;
32734;SDS011;19112;51.076;3.706;2023-07-28T17:46:52;1.38;;;1.20;;
32734;SDS011;19112;51.076;3.706;2023-07-28T17:49:18;2.15;;;1.50;;
32734;SDS011;19112;51.076;3.706;2023-07-28T17:51:43;4.22;;;1.50;;
32734;SDS011;19112;51.076;3.706;2023-07-28T17:54:09;2.40;;;1.10;;
32734;SDS011;19112;51.076;3.706;2023-07-28T17:56:35;3.13;;;1.42;;
32734;SDS011;19112;51.076;3.706;2023-07-28T17:59:01;2.92;;;1.30;;
32734;SDS011;19112;51.076;3.706;2023-07-28T18:01:28;1.98;;;1.17;;
32734;SDS011;19112;51.076;3.706;2023-07-28T18:03:54;1.20;;;1.10;;
32734;SDS011;19112;51.076;3.706;2023-07-28T18:06:20;3.85;;;1.60;;
32734;SDS011;19112;51.076;3.706;2023-07-28T18:08:47;3.30;;;1.42;;
32734;SDS011;19112;51.076;3.706;2023-07-28T18:11:14;2.45;;;1.38;;
32734;SDS011;19112;51.076;3.706;2023-07-28T18:13:39;2.80;;;1.60;;
32734;SDS011;19112;51.076;3.706;2023-07-28T18:16:07;1.77;;;1.42;;
32734;SDS011;19112;51.076;3.706;2023-07-28T18:18:33;1.45;;;1.10;;
32734;SDS011;19112;51.076;3.706;2023-07-28T18:20:59;2.47;;;1.42;;
32734;SDS011;19112;51.076;3.706;2023-07-28T18:23:25;2.53;;;1.48;;
32734;SDS011;19112;51.076;3.706;2023-07-28T18:25:51;2.15;;;1.58;;
32734;SDS011;19112;51.076;3.706;2023-07-28T18:28:17;5.90;;;1.38;;
32734;SDS011;19112;51.076;3.706;2023-07-28T18:30:43;3.72;;;1.70;;
32734;SDS011;19112;51.076;3.706;2023-07-28T18:33:09;3.00;;;1.20;;
32734;SDS011;19112;51.076;3.706;2023-07-28T18:35:35;3.95;;;1.35;;
32734;SDS011;19112;51.076;3.706;2023-07-28T18:38:01;9.25;;;1.52;;
32734;SDS011;19112;51.076;3.706;2023-07-28T18:40:27;1.70;;;1.27;;
32734;SDS011;19112;51.076;3.706;2023-07-28T18:42:53;2.78;;;1.25;;
32734;SDS011;19112;51.076;3.706;2023-07-28T18:45:19;2.30;;;1.40;;
32734;SDS011;19112;51.076;3.706;2023-07-28T18:47:45;2.83;;;1.55;;
32734;SDS011;19112;51.076;3.706;2023-07-28T18:50:12;2.58;;;1.50;;
32734;SDS011;19112;51.076;3.706;2023-07-28T18:52:39;3.92;;;1.50;;
32734;SDS011;19112;51.076;3.706;2023-07-28T18:55:05;2.42;;;1.48;;
32734;SDS011;19112;51.076;3.706;2023-07-28T18:57:35;3.08;;;1.45;;
32734;SDS011;19112;51.076;3.706;2023-07-28T19:00:19;3.30;;;1.52;;
32734;SDS011;19112;51.076;3.706;2023-07-28T19:09:28;3.15;;;1.60;;
32734;SDS011;19112;51.076;3.706;2023-07-28T19:12:23;5.18;;;1.90;;
32734;SDS011;19112;51.076;3.706;2023-07-28T19:18:43;2.75;;;1.73;;
32734;SDS011;19112;51.076;3.706;2023-07-28T19:21:58;2.67;;;1.65;;
32734;SDS011;19112;51.076;3.706;2023-07-28T19:24:25;2.90;;;1.67;;
32734;SDS011;19112;51.076;3.706;2023-07-28T19:27:30;4.03;;;1.60;;
32734;SDS011;19112;51.076;3.706;2023-07-28T19:30:40;5.45;;;1.70;;
32734;SDS011;19112;51.076;3.706;2023-07-28T19:33:33;2.85;;;1.65;;
32734;SDS011;19112;51.076;3.706;2023-07-28T19:36:04;3.33;;;1.88;;
32734;SDS011;19112;51.076;3.706;2023-07-28T19:38:41;5.25;;;1.85;;
32734;SDS011;19112;51.076;3.706;2023-07-28T19:41:35;2.50;;;1.50;;
32734;SDS011;19112;51.076;3.706;2023-07-28T19:51:04;3.22;;;1.77;;
32734;SDS011;19112;51.076;3.706;2023-07-28T19:54:08;2.63;;;1.65;;
32734;SDS011;19112;51.076;3.706;2023-07-28T19:56:38;3.97;;;1.90;;
32734;SDS011;19112;51.076;3.706;2023-07-28T19:59:04;2.45;;;1.98;;
32734;SDS011;19112;51.076;3.706;2023-07-28T20:01:36;3.05;;;1.70;;
32734;SDS011;19112;51.076;3.706;2023-07-28T20:04:08;3.53;;;1.63;;
32734;SDS011;19112;51.076;3.706;2023-07-28T20:06:34;4.63;;;2.00;;
32734;SDS011;19112;51.076;3.706;2023-07-28T20:09:03;2.80;;;1.77;;
32734;SDS011;19112;51.076;3.706;2023-07-28T20:11:32;4.25;;;2.00;;
32734;SDS011;19112;51.076;3.706;2023-07-28T20:14:01;4.90;;;2.08;;
32734;SDS011;19112;51.076;3.706;2023-07-28T20:16:33;3.80;;;2.00;;
32734;SDS011;19112;51.076;3.706;2023-07-28T20:19:06;5.32;;;2.13;;
32734;SDS011;19112;51.076;3.706;2023-07-28T20:21:38;5.50;;;2.40;;
32734;SDS011;19112;51.076;3.706;2023-07-28T20:24:06;7.05;;;2.42;;
32734;SDS011;19112;51.076;3.706;2023-07-28T20:26:38;5.10;;;2.35;;
32734;SDS011;19112;51.076;3.706;2023-07-28T20:29:05;5.37;;;2.60;;
32734;SDS011;19112;51.076;3.706;2023-07-28T20:31:35;5.28;;;2.30;;
32734;SDS011;19112;51.076;3.706;2023-07-28T20:36:35;4.10;;;2.25;;
32734;SDS011;19112;51.076;3.706;2023-07-28T20:39:03;3.67;;;2.05;;
32734;SDS011;19112;51.076;3.706;2023-07-28T20:41:37;6.78;;;2.28;;
32734;SDS011;19112;51.076;3.706;2023-07-28T20:44:06;4.70;;;2.00;;
32734;SDS011;19112;51.076;3.706;2023-07-28T20:46:32;4.07;;;2.28;;
32734;SDS011;19112;51.076;3.706;2023-07-28T20:48:59;7.57;;;2.60;;
32734;SDS011;19112;51.076;3.706;2023-07-28T20:51:30;6.18;;;2.33;;
32734;SDS011;19112;51.076;3.706;2023-07-28T20:53:59;5.30;;;1.83;;
32734;SDS011;19112;51.076;3.706;2023-07-28T20:56:27;5.30;;;2.17;;
32734;SDS011;19112;51.076;3.706;2023-07-28T20:58:54;4.10;;;2.10;;
32734;SDS011;19112;51.076;3.706;2023-07-28T21:01:26;5.88;;;2.40;;
32734;SDS011;19112;51.076;3.706;2023-07-28T21:03:54;7.82;;;2.42;;
32734;SDS011;19112;51.076;3.706;2023-07-28T21:06:20;8.43;;;2.40;;
32734;SDS011;19112;51.076;3.706;2023-07-28T21:08:46;5.80;;;2.20;;
32734;SDS011;19112;51.076;3.706;2023-07-28T21:13:41;5.55;;;2.70;;
32734;SDS011;19112;51.076;3.706;2023-07-28T21:16:12;6.82;;;2.60;;
32734;SDS011;19112;51.076;3.706;2023-07-28T21:18:38;6.43;;;2.10;;
32734;SDS011;19112;51.076;3.706;2023-07-28T21:21:04;4.95;;;2.20;;
32734;SDS011;19112;51.076;3.706;2023-07-28T21:23:35;4.57;;;2.10;;
32734;SDS011;19112;51.076;3.706;2023-07-28T21:26:03;3.47;;;1.67;;
32734;SDS011;19112;51.076;3.706;2023-07-28T21:28:48;6.82;;;2.10;;
32734;SDS011;19112;51.076;3.706;2023-07-28T21:36:57;3.60;;;1.77;;
32734;SDS011;19112;51.076;3.706;2023-07-28T21:39:35;5.07;;;2.20;;
32734;SDS011;19112;51.076;3.706;2023-07-28T21:42:12;9.55;;;2.65;;
32734;SDS011;19112;51.076;3.706;2023-07-28T21:44:58;4.40;;;1.90;;
32734;SDS011;19112;51.076;3.706;2023-07-28T21:47:34;8.07;;;2.15;;
32734;SDS011;19112;51.076;3.706;2023-07-28T21:50:07;3.45;;;2.00;;
32734;SDS011;19112;51.076;3.706;2023-07-28T21:52:33;4.65;;;1.98;;
32734;SDS011;19112;51.076;3.706;2023-07-28T21:54:59;9.02;;;3.00;;
32734;SDS011;19112;51.076;3.706;2023-07-28T21:57:27;6.80;;;2.38;;
32734;SDS011;19112;51.076;3.706;2023-07-28T21:59:53;3.17;;;2.15;;
32734;SDS011;19112;51.076;3.706;2023-07-28T22:02:20;4.78;;;2.33;;
32734;SDS011;19112;51.076;3.706;2023-07-28T22:04:49;4.85;;;2.30;;
32734;SDS011;19112;51.076;3.706;2023-07-28T22:07:18;6.45;;;2.35;;
32734;SDS011;19112;51.076;3.706;2023-07-28T22:09:44;5.60;;;2.42;;
32734;SDS011;19112;51.076;3.706;2023-07-28T22:12:11;4.63;;;2.30;;
32734;SDS011;19112;51.076;3.706;2023-07-28T22:14:43;5.38;;;2.35;;
32734;SDS011;19112;51.076;3.706;2023-07-28T22:17:14;6.95;;;2.70;;
32734;SDS011;19112;51.076;3.706;2023-07-28T22:19:42;6.95;;;2.50;;
32734;SDS011;19112;51.076;3.706;2023-07-28T22:22:08;5.10;;;2.38;;
32734;SDS011;19112;51.076;3.706;2023-07-28T22:24:34;9.40;;;2.30;;
32734;SDS011;19112;51.076;3.706;2023-07-28T22:29:32;3.85;;;2.25;;
32734;SDS011;19112;51.076;3.706;2023-07-28T22:31:58;4.22;;;2.13;;
32734;SDS011;19112;51.076;3.706;2023-07-28T22:34:28;4.32;;;2.15;;
32734;SDS011;19112;51.076;3.706;2023-07-28T22:37:01;4.72;;;2.40;;
32734;SDS011;19112;51.076;3.706;2023-07-28T22:41:57;7.20;;;2.72;;
32734;SDS011;19112;51.076;3.706;2023-07-28T22:44:23;5.43;;;2.60;;
32734;SDS011;19112;51.076;3.706;2023-07-28T22:49:18;5.53;;;2.60;;
32734;SDS011;19112;51.076;3.706;2023-07-28T22:51:44;8.65;;;2.70;;
32734;SDS011;19112;51.076;3.706;2023-07-28T22:54:10;5.82;;;2.70;;
32734;SDS011;19112;51.076;3.706;2023-07-28T22:56:38;5.03;;;2.95;;
32734;SDS011;19112;51.076;3.706;2023-07-28T22:59:13;5.57;;;2.83;;
32734;SDS011;19112;51.076;3.706;2023-07-28T23:01:39;8.45;;;3.03;;
32734;SDS011;19112;51.076;3.706;2023-07-28T23:04:07;5.70;;;2.97;;
32734;SDS011;19112;51.076;3.706;2023-07-28T23:06:33;5.95;;;2.90;;
32734;SDS011;19112;51.076;3.706;2023-07-28T23:09:02;6.25;;;3.10;;
32734;SDS011;19112;51.076;3.706;2023-07-28T23:11:33;7.00;;;3.25;;
32734;SDS011;19112;51.076;3.706;2023-07-28T23:14:00;8.90;;;3.00;;
32734;SDS011;19112;51.076;3.706;2023-07-28T23:18:56;9.00;;;3.63;;
32734;SDS011;19112;51.076;3.706;2023-07-28T23:21:24;10.82;;;3.40;;
32734;SDS011;19112;51.076;3.706;2023-07-28T23:23:52;7.07;;;3.30;;
32734;SDS011;19112;51.076;3.706;2023-07-28T23:26:19;9.63;;;3.40;;
32734;SDS011;19112;51.076;3.706;2023-07-28T23:31:17;7.03;;;3.22;;
32734;SDS011;19112;51.076;3.706;2023-07-28T23:33:44;8.52;;;3.30;;
32734;SDS011;19112;51.076;3.706;2023-07-28T23:36:13;6.90;;;3.40;;
32734;SDS011;19112;51.076;3.706;2023-07-28T23:38:41;9.25;;;3.47;;
32734;SDS011;19112;51.076;3.706;2023-07-28T23:41:08;7.68;;;3.40;;
32734;SDS011;19112;51.076;3.706;2023-07-28T23:43:35;9.00;;;3.47;;
32734;SDS011;19112;51.076;3.706;2023-07-28T23:46:04;6.85;;;3.00;;
32734;SDS011;19112;51.076;3.706;2023-07-28T23:48:30;8.70;;;3.15;;
32734;SDS011;19112;51.076;3.706;2023-07-28T23:50:58;6.97;;;3.20;;
32734;SDS011;19112;51.076;3.706;2023-07-28T23:53:25;8.80;;;3.50;;
32734;SDS011;19112;51.076;3.706;2023-07-28T23:55:55;8.63;;;3.47;;
32734;SDS011;19112;51.076;3.706;2023-07-28T23:58:27;7.45;;;3.15;;
